createdAt,value
2018-10-11T00:02:17.775Z,99.60
2018-10-11T00:04:45.009Z,99.70
2018-10-11T00:07:12.210Z,99.80
2018-10-11T00:09:39.405Z,99.90
2018-10-11T00:12:07.594Z,99.90
2018-10-11T00:14:34.794Z,99.90
2018-10-11T00:17:01.977Z,99.90
2018-10-11T00:19:29.177Z,99.90
2018-10-11T00:21:56.364Z,99.90
2018-10-11T00:24:23.594Z,99.90
2018-10-11T00:26:50.786Z,99.90
2018-10-11T00:29:17.977Z,99.90
2018-10-11T00:31:45.222Z,99.90
2018-10-11T00:34:12.404Z,99.90
2018-10-11T00:36:39.567Z,99.90
2018-10-11T00:39:07.332Z,99.90
2018-10-11T00:41:34.511Z,99.90
2018-10-11T00:44:01.716Z,99.90
2018-10-11T00:46:28.997Z,99.90
2018-10-11T00:48:56.192Z,99.90
2018-10-11T00:51:23.446Z,99.90
2018-10-11T00:53:50.679Z,99.90
2018-10-11T00:56:17.925Z,99.90
2018-10-11T00:58:45.113Z,99.90
2018-10-11T01:01:12.335Z,99.90
2018-10-11T01:03:39.891Z,99.90
2018-10-11T01:06:07.426Z,99.90
2018-10-11T01:08:34.606Z,99.90
2018-10-11T01:11:01.838Z,99.90
2018-10-11T01:13:29.025Z,99.90
2018-10-11T01:15:56.301Z,99.90
2018-10-11T01:18:23.486Z,99.90
2018-10-11T01:20:50.713Z,99.90
2018-10-11T01:23:18.194Z,99.90
2018-10-11T01:25:45.574Z,99.90
2018-10-11T01:28:13.041Z,99.90
2018-10-11T01:30:46.209Z,99.90
2018-10-11T01:33:13.425Z,99.90
2018-10-11T01:35:40.622Z,99.90
2018-10-11T01:38:07.846Z,99.90
2018-10-11T01:40:35.068Z,99.90
2018-10-11T01:43:04.569Z,99.90
2018-10-11T01:45:31.776Z,99.90
2018-10-11T01:47:58.972Z,99.90
2018-10-11T01:50:26.376Z,99.90
2018-10-11T01:52:54.244Z,99.90
2018-10-11T01:55:21.434Z,99.90
2018-10-11T01:57:48.634Z,99.90
2018-10-11T02:00:15.857Z,99.90
2018-10-11T02:02:43.057Z,99.90
2018-10-11T02:05:10.365Z,99.90
2018-10-11T02:07:37.556Z,99.90
2018-10-11T02:10:04.792Z,99.90
2018-10-11T02:12:31.981Z,99.90
2018-10-11T02:14:59.165Z,99.90
2018-10-11T02:17:26.394Z,99.90
2018-10-11T02:19:53.770Z,99.90
2018-10-11T02:22:20.969Z,99.90
2018-10-11T02:24:48.149Z,99.90
2018-10-11T02:27:15.375Z,99.90
2018-10-11T02:29:42.630Z,99.90
2018-10-11T02:32:09.857Z,99.90
2018-10-11T02:34:37.018Z,99.90
2018-10-11T02:37:04.237Z,99.90
2018-10-11T02:39:31.385Z,99.90
2018-10-11T02:41:58.605Z,99.90
2018-10-11T02:44:25.780Z,99.90
2018-10-11T02:46:52.938Z,99.90
2018-10-11T02:49:20.141Z,99.90
2018-10-11T02:51:47.338Z,99.90
2018-10-11T02:54:14.546Z,99.90
2018-10-11T02:56:41.826Z,99.90
2018-10-11T02:59:20.594Z,99.90
2018-10-11T03:01:47.850Z,99.90
2018-10-11T03:04:15.103Z,99.90
2018-10-11T03:06:42.311Z,99.90
2018-10-11T03:09:09.513Z,99.90
2018-10-11T03:11:36.992Z,99.90
2018-10-11T03:14:04.173Z,99.90
2018-10-11T03:16:31.363Z,99.90
2018-10-11T03:18:58.574Z,99.90
2018-10-11T03:21:25.748Z,99.90
2018-10-11T03:23:52.937Z,99.90
2018-10-11T03:26:20.127Z,99.90
2018-10-11T03:28:47.365Z,99.90
2018-10-11T03:31:14.610Z,99.90
2018-10-11T03:33:41.812Z,99.90
2018-10-11T03:36:08.993Z,99.90
2018-10-11T03:38:36.205Z,99.90
2018-10-11T03:41:03.538Z,99.90
2018-10-11T03:43:30.710Z,99.90
2018-10-11T03:45:57.989Z,99.90
2018-10-11T03:48:25.202Z,99.90
2018-10-11T03:50:52.441Z,99.90
2018-10-11T03:53:19.641Z,99.90
2018-10-11T03:55:46.809Z,99.90
2018-10-11T03:58:14.008Z,99.90
2018-10-11T04:00:41.220Z,99.90
2018-10-11T04:03:08.525Z,99.90
2018-10-11T04:05:35.726Z,99.90
2018-10-11T04:08:02.915Z,99.90
2018-10-11T04:10:30.142Z,99.90
2018-10-11T04:12:57.459Z,99.90
2018-10-11T04:15:24.725Z,99.90
2018-10-11T04:17:51.919Z,99.90
2018-10-11T04:20:19.137Z,99.90
2018-10-11T04:22:46.350Z,99.90
2018-10-11T04:25:13.518Z,99.90
2018-10-11T04:27:40.719Z,99.90
2018-10-11T04:30:07.961Z,99.90
2018-10-11T04:32:35.145Z,99.90
2018-10-11T04:35:02.351Z,99.90
2018-10-11T04:37:29.537Z,99.90
2018-10-11T04:39:56.733Z,99.90
2018-10-11T04:42:23.930Z,99.90
2018-10-11T04:44:51.142Z,99.90
2018-10-11T04:47:18.324Z,99.90
2018-10-11T04:49:45.481Z,99.90
2018-10-11T04:52:12.674Z,99.90
2018-10-11T04:54:39.844Z,99.90
2018-10-11T04:57:07.185Z,99.90
2018-10-11T04:59:34.372Z,99.90
2018-10-11T05:02:01.667Z,99.90
2018-10-11T05:04:28.894Z,99.90
2018-10-11T05:06:56.189Z,99.90
2018-10-11T05:09:23.397Z,99.90
2018-10-11T05:11:50.685Z,99.90
2018-10-11T05:14:17.945Z,99.90
2018-10-11T05:16:45.249Z,99.90
2018-10-11T05:19:12.454Z,99.90
2018-10-11T05:21:40.006Z,99.90
2018-10-11T05:24:07.295Z,99.90
2018-10-11T05:26:34.544Z,99.90
2018-10-11T05:29:01.849Z,99.90
2018-10-11T05:31:29.720Z,99.90
2018-10-11T05:33:56.957Z,99.90
2018-10-11T05:36:24.365Z,99.90
2018-10-11T05:38:51.572Z,99.90
2018-10-11T05:41:18.858Z,99.90
2018-10-11T05:43:46.117Z,99.90
2018-10-11T05:46:20.429Z,99.90
2018-10-11T05:48:47.647Z,99.90
2018-10-11T05:51:14.865Z,99.90
2018-10-11T05:53:42.115Z,99.90
2018-10-11T05:56:09.329Z,99.90
2018-10-11T05:58:36.582Z,99.90
2018-10-11T06:01:03.844Z,99.90
2018-10-11T06:03:31.071Z,99.90
2018-10-11T06:05:58.286Z,99.90
2018-10-11T06:08:25.539Z,99.90
2018-10-11T06:10:52.773Z,99.90
2018-10-11T06:13:20.021Z,99.90
2018-10-11T06:15:47.269Z,99.90
2018-10-11T06:18:14.468Z,99.90
2018-10-11T06:20:42.779Z,99.90
2018-10-11T06:23:10.077Z,99.90
2018-10-11T06:25:37.290Z,99.90
2018-10-11T06:28:05.146Z,99.90
2018-10-11T06:30:33.117Z,99.90
2018-10-11T06:33:00.330Z,99.90
2018-10-11T06:35:27.620Z,99.90
2018-10-11T06:37:54.869Z,99.90
2018-10-11T06:40:22.189Z,99.90
2018-10-11T06:42:49.461Z,99.90
2018-10-11T06:45:16.684Z,99.90
2018-10-11T06:47:47.781Z,99.90
2018-10-11T06:50:15.018Z,99.90
2018-10-11T06:52:42.237Z,99.90
2018-10-11T06:55:09.486Z,99.90
2018-10-11T06:57:36.705Z,99.90
2018-10-11T07:00:04.627Z,99.90
2018-10-11T07:02:31.824Z,99.90
2018-10-11T07:04:59.014Z,99.90
2018-10-11T07:07:26.242Z,99.90
2018-10-11T07:09:53.492Z,99.90
2018-10-11T07:12:20.669Z,99.90
2018-10-11T07:14:47.977Z,99.90
2018-10-11T07:17:15.445Z,99.90
2018-10-11T07:19:42.797Z,99.90
2018-10-11T07:22:09.994Z,99.90
2018-10-11T07:24:37.270Z,99.90
2018-10-11T07:27:04.664Z,99.90
2018-10-11T07:29:31.866Z,99.90
2018-10-11T07:31:59.045Z,99.90
2018-10-11T07:34:26.247Z,99.90
2018-10-11T07:36:53.442Z,99.90
2018-10-11T07:39:20.804Z,99.90
2018-10-11T07:41:48.029Z,99.90
2018-10-11T07:44:15.237Z,99.90
2018-10-11T07:46:42.408Z,99.90
2018-10-11T07:49:09.688Z,99.90
2018-10-11T07:51:37.198Z,99.90
2018-10-11T07:54:04.385Z,99.90
2018-10-11T07:56:32.733Z,99.90
2018-10-11T07:59:00.229Z,99.90
2018-10-11T08:01:28.092Z,99.90
2018-10-11T08:03:55.591Z,99.90
2018-10-11T08:06:22.785Z,99.90
2018-10-11T08:08:49.980Z,99.90
2018-10-11T08:11:17.192Z,99.90
2018-10-11T08:13:44.380Z,99.90
2018-10-11T08:16:11.753Z,99.90
2018-10-11T08:18:39.006Z,99.90
2018-10-11T08:21:06.149Z,99.80
2018-10-11T08:23:33.314Z,99.60
2018-10-11T08:26:00.849Z,99.40
2018-10-11T08:28:27.794Z,99.30
2018-10-11T08:30:54.969Z,99.00
2018-10-11T08:33:22.418Z,98.70
2018-10-11T08:35:49.614Z,98.80
2018-10-11T08:38:17.014Z,98.50
2018-10-11T08:42:08.709Z,98.20
2018-10-11T08:44:35.918Z,97.70
2018-10-11T08:47:03.170Z,98.00
2018-10-11T08:49:30.493Z,97.80
2018-10-11T08:51:57.700Z,97.40
2018-10-11T08:54:30.602Z,97.30
2018-10-11T08:56:57.845Z,96.90
2018-10-11T08:59:25.136Z,96.70
2018-10-11T09:01:52.234Z,96.50
2018-10-11T09:04:19.554Z,96.30
2018-10-11T09:06:46.772Z,96.20
2018-10-11T09:09:13.974Z,96.30
2018-10-11T09:11:41.182Z,95.70
2018-10-11T09:14:08.479Z,96.00
2018-10-11T09:16:35.689Z,95.70
2018-10-11T09:19:02.921Z,95.20
2018-10-11T09:21:30.331Z,95.30
2018-10-11T09:23:57.605Z,95.70
2018-10-11T09:26:24.796Z,95.10
2018-10-11T09:28:52.039Z,94.60
2018-10-11T09:31:19.231Z,94.90
2018-10-11T09:33:46.409Z,94.80
2018-10-11T09:36:13.670Z,94.60
2018-10-11T09:38:40.849Z,94.90
2018-10-11T09:41:08.121Z,94.50
2018-10-11T09:43:35.374Z,94.10
2018-10-11T09:46:02.565Z,94.00
2018-10-11T09:48:29.757Z,93.70
2018-10-11T09:50:57.036Z,93.70
2018-10-11T09:53:24.259Z,93.20
2018-10-11T09:55:51.423Z,93.10
2018-10-11T09:58:18.614Z,92.80
2018-10-11T10:00:51.567Z,92.80
2018-10-11T10:03:18.766Z,92.70
2018-10-11T10:05:46.091Z,92.50
2018-10-11T10:08:13.361Z,92.20
2018-10-11T10:10:40.577Z,92.00
2018-10-11T10:13:07.796Z,91.90
2018-10-11T10:15:35.079Z,91.70
2018-10-11T10:18:02.258Z,91.70
2018-10-11T10:20:29.438Z,92.00
2018-10-11T10:22:56.654Z,91.50
2018-10-11T10:25:23.941Z,91.40
2018-10-11T10:27:51.133Z,91.20
2018-10-11T10:30:24.075Z,91.60
2018-10-11T10:32:51.286Z,91.60
2018-10-11T10:35:18.460Z,91.00
2018-10-11T10:37:45.685Z,90.80
2018-10-11T10:40:12.916Z,91.30
2018-10-11T10:42:40.293Z,90.20
2018-10-11T10:45:07.514Z,90.40
2018-10-11T10:47:34.761Z,90.00
2018-10-11T10:50:01.986Z,90.00
2018-10-11T10:52:29.186Z,88.90
2018-10-11T10:54:56.516Z,87.80
2018-10-11T10:57:23.750Z,88.10
2018-10-11T10:59:50.990Z,88.10
2018-10-11T11:02:18.248Z,87.40
2018-10-11T11:04:45.528Z,87.40
2018-10-11T11:07:12.872Z,87.20
2018-10-11T11:09:40.107Z,86.70
2018-10-11T11:12:07.467Z,86.50
2018-10-11T11:14:34.672Z,86.00
2018-10-11T11:17:01.872Z,86.70
2018-10-11T11:19:29.082Z,85.20
2018-10-11T11:21:56.322Z,85.10
2018-10-11T11:24:23.549Z,85.40
2018-10-11T11:26:50.728Z,84.10
2018-10-11T11:29:18.022Z,84.30
2018-10-11T11:31:45.234Z,83.70
2018-10-11T11:34:13.247Z,83.80
2018-10-11T11:36:40.481Z,84.60
2018-10-11T11:39:08.261Z,84.60
2018-10-11T11:41:35.677Z,84.30
2018-10-11T11:44:03.082Z,83.20
2018-10-11T11:46:30.261Z,82.30
2018-10-11T11:48:57.605Z,82.00
2018-10-11T11:51:24.777Z,82.00
2018-10-11T11:53:51.969Z,82.90
2018-10-11T11:56:19.225Z,82.20
2018-10-11T11:58:46.457Z,82.10
2018-10-11T12:01:13.759Z,81.70
2018-10-11T12:03:41.069Z,81.40
2018-10-11T12:06:08.973Z,81.00
2018-10-11T12:08:36.765Z,80.70
2018-10-11T12:11:04.108Z,80.80
2018-10-11T12:13:31.284Z,78.10
2018-10-11T12:15:58.554Z,76.90
2018-10-11T12:18:25.845Z,75.00
2018-10-11T12:20:53.037Z,72.00
2018-10-11T12:23:20.257Z,69.00
2018-10-11T12:25:47.480Z,64.40
2018-10-11T12:28:14.803Z,59.10
2018-10-11T12:30:41.957Z,55.20
2018-10-11T12:33:09.141Z,54.00
2018-10-11T12:35:36.362Z,51.20
2018-10-11T12:38:03.604Z,49.30
2018-10-11T12:40:30.926Z,47.10
2018-10-11T12:42:58.259Z,45.10
2018-10-11T12:45:25.592Z,45.30
2018-10-11T12:47:52.800Z,44.40
2018-10-11T12:50:20.073Z,43.60
2018-10-11T12:52:47.276Z,44.00
2018-10-11T12:55:14.614Z,44.90
2018-10-11T12:57:41.842Z,44.40
2018-10-11T13:00:11.798Z,44.00
2018-10-11T13:02:39.070Z,42.80
2018-10-11T13:05:06.350Z,42.90
2018-10-11T13:07:33.537Z,43.00
2018-10-11T13:10:00.921Z,42.80
2018-10-11T13:12:28.177Z,41.70
2018-10-11T13:14:55.395Z,42.30
2018-10-11T13:17:22.568Z,40.50
2018-10-11T13:19:49.826Z,40.40
2018-10-11T13:22:17.024Z,39.60
2018-10-11T13:24:46.835Z,39.10
2018-10-11T13:27:11.490Z,38.50
2018-10-11T13:29:38.725Z,38.90
2018-10-11T13:32:05.933Z,38.00
2018-10-11T13:34:33.225Z,37.20
2018-10-11T13:37:00.434Z,36.70
2018-10-11T13:39:27.629Z,35.40
2018-10-11T13:41:54.877Z,36.20
2018-10-11T13:44:22.061Z,35.80
2018-10-11T13:46:49.404Z,35.30
2018-10-11T13:49:16.668Z,35.20
2018-10-11T13:51:43.861Z,34.80
2018-10-11T13:54:16.597Z,35.20
2018-10-11T13:56:43.962Z,35.30
2018-10-11T13:59:14.266Z,35.30
2018-10-11T14:01:38.621Z,34.90
2018-10-11T14:04:06.435Z,34.60
2018-10-11T14:06:33.630Z,34.10
2018-10-11T14:09:00.834Z,34.30
2018-10-11T14:11:28.174Z,34.90
2018-10-11T14:13:55.365Z,34.90
2018-10-11T14:16:22.541Z,35.60
2018-10-11T14:18:49.757Z,35.60
2018-10-11T14:21:16.938Z,34.60
2018-10-11T14:23:44.461Z,33.80
2018-10-11T14:26:11.580Z,34.10
2018-10-11T14:28:38.778Z,34.30
2018-10-11T14:31:06.209Z,34.40
2018-10-11T14:33:33.398Z,34.10
2018-10-11T14:36:00.649Z,33.40
2018-10-11T14:38:29.299Z,33.70
2018-10-11T14:40:57.007Z,34.60
2018-10-11T14:43:24.358Z,34.50
2018-10-11T14:45:51.547Z,34.50
2018-10-11T14:48:18.739Z,34.20
2018-10-11T14:50:45.962Z,34.00
2018-10-11T14:53:13.250Z,34.60
2018-10-11T14:55:40.481Z,33.80
2018-10-11T14:58:07.685Z,34.50
2018-10-11T15:00:34.885Z,34.50
2018-10-11T15:03:02.189Z,34.20
2018-10-11T15:05:29.372Z,34.30
2018-10-11T15:07:56.925Z,34.70
2018-10-11T15:10:24.219Z,34.60
2018-10-11T15:12:51.450Z,35.50
2018-10-11T15:15:18.646Z,35.60
2018-10-11T15:17:45.875Z,36.30
2018-10-11T15:20:13.195Z,36.80
2018-10-11T15:22:40.411Z,37.00
2018-10-11T15:25:07.757Z,38.00
2018-10-11T15:27:35.104Z,38.30
2018-10-11T15:30:02.383Z,38.40
2018-10-11T15:32:30.664Z,39.10
2018-10-11T15:34:58.143Z,39.00
2018-10-11T15:37:25.359Z,39.20
2018-10-11T15:39:52.588Z,39.40
2018-10-11T15:42:19.994Z,39.50
2018-10-11T15:44:47.221Z,40.60
2018-10-11T15:47:14.499Z,41.60
2018-10-11T15:49:41.802Z,42.80
2018-10-11T15:52:09.109Z,44.10
2018-10-11T15:54:38.398Z,45.80
2018-10-11T15:57:05.625Z,47.30
2018-10-11T15:59:32.924Z,48.60
2018-10-11T16:02:00.216Z,50.60
2018-10-11T16:04:27.514Z,51.50
2018-10-11T16:06:54.733Z,54.10
2018-10-11T16:09:22.131Z,54.80
2018-10-11T16:11:49.323Z,57.30
2018-10-11T16:14:16.525Z,58.50
2018-10-11T16:16:43.766Z,60.20
2018-10-11T16:19:11.997Z,62.40
2018-10-11T16:21:39.386Z,64.40
2018-10-11T16:24:06.638Z,66.20
2018-10-11T16:26:33.869Z,68.10
2018-10-11T16:29:01.094Z,69.50
2018-10-11T16:31:28.333Z,70.80
2018-10-11T16:33:55.565Z,71.90
2018-10-11T16:36:22.930Z,73.00
2018-10-11T16:38:50.301Z,74.00
2018-10-11T16:41:17.501Z,75.10
2018-10-11T16:43:44.977Z,76.00
2018-10-11T16:46:12.192Z,76.70
2018-10-11T16:48:39.478Z,77.50
2018-10-11T16:51:06.821Z,78.60
2018-10-11T16:53:34.153Z,77.90
2018-10-11T16:56:01.376Z,78.30
2018-10-11T16:58:28.736Z,78.50
2018-10-11T17:00:55.969Z,78.80
2018-10-11T17:03:23.526Z,78.90
2018-10-11T17:05:50.927Z,79.20
2018-10-11T17:08:18.221Z,79.40
2018-10-11T17:10:45.458Z,80.40
2018-10-11T17:13:12.951Z,81.30
2018-10-11T17:15:40.182Z,81.20
2018-10-11T17:18:07.385Z,80.50
2018-10-11T17:20:34.612Z,80.80
2018-10-11T17:23:01.802Z,81.20
2018-10-11T17:25:29.128Z,80.70
2018-10-11T17:27:56.413Z,80.80
2018-10-11T17:30:23.696Z,80.70
2018-10-11T17:32:51.524Z,81.50
2018-10-11T17:35:18.829Z,82.20
2018-10-11T17:37:46.417Z,82.10
2018-10-11T17:40:13.983Z,82.00
2018-10-11T17:42:41.697Z,83.20
2018-10-11T17:45:09.384Z,84.00
2018-10-11T17:47:37.250Z,85.00
2018-10-11T17:50:04.672Z,85.20
2018-10-11T17:52:31.934Z,85.40
2018-10-11T17:54:59.260Z,86.40
2018-10-11T17:57:26.928Z,86.60
2018-10-11T17:59:54.304Z,87.30
2018-10-11T18:02:22.122Z,87.70
2018-10-11T18:04:50.356Z,87.90
2018-10-11T18:07:17.562Z,87.50
2018-10-11T18:09:44.914Z,88.90
2018-10-11T18:12:12.102Z,89.70
2018-10-11T18:14:39.457Z,90.10
2018-10-11T18:17:06.941Z,90.50
2018-10-11T18:19:34.285Z,90.90
2018-10-11T18:22:01.578Z,91.00
2018-10-11T18:24:28.830Z,91.10
2018-10-11T18:26:56.044Z,91.40
2018-10-11T18:29:23.394Z,91.30
2018-10-11T18:31:50.600Z,91.60
2018-10-11T18:34:17.785Z,91.40
2018-10-11T18:36:45.113Z,91.30
2018-10-11T18:39:13.881Z,91.40
2018-10-11T18:41:41.489Z,91.60
2018-10-11T18:44:09.080Z,91.80
2018-10-11T18:46:36.309Z,92.20
2018-10-11T18:49:03.866Z,92.30
2018-10-11T18:51:31.046Z,92.20
2018-10-11T18:53:58.253Z,92.10
2018-10-11T18:56:25.502Z,92.50
2018-10-11T18:58:52.741Z,92.90
2018-10-11T19:01:19.942Z,92.90
2018-10-11T19:03:47.262Z,93.00
2018-10-11T19:06:14.497Z,93.20
2018-10-11T19:08:41.670Z,93.30
2018-10-11T19:11:08.894Z,93.20
2018-10-11T19:13:36.107Z,93.20
2018-10-11T19:16:03.585Z,93.10
2018-10-11T19:18:30.786Z,92.90
2018-10-11T19:20:58.016Z,92.50
2018-10-11T19:23:25.212Z,92.40
2018-10-11T19:25:52.414Z,92.20
2018-10-11T19:28:20.010Z,92.10
2018-10-11T19:30:47.234Z,91.90
2018-10-11T19:33:14.612Z,91.90
2018-10-11T19:35:41.802Z,92.00
2018-10-11T19:38:09.081Z,91.80
2018-10-11T19:40:36.261Z,91.70
2018-10-11T19:43:03.583Z,92.00
2018-10-11T19:45:30.864Z,92.10
2018-10-11T19:47:58.445Z,92.30
2018-10-11T19:50:25.638Z,92.30
2018-10-11T19:52:52.965Z,92.30
2018-10-11T19:55:20.150Z,92.50
2018-10-11T19:57:47.361Z,92.60
2018-10-11T20:00:14.541Z,92.60
2018-10-11T20:02:41.882Z,92.70
2018-10-11T20:05:09.149Z,92.70
2018-10-11T20:07:36.390Z,92.90
2018-10-11T20:10:03.820Z,93.00
2018-10-11T20:12:31.046Z,93.00
2018-10-11T20:14:58.314Z,92.90
2018-10-11T20:17:25.636Z,92.80
2018-10-11T20:19:52.726Z,92.90
2018-10-11T20:22:19.970Z,93.10
2018-10-11T20:24:47.168Z,93.30
2018-10-11T20:27:14.371Z,93.30
2018-10-11T20:29:41.669Z,93.30
2018-10-11T20:32:09.968Z,93.60
2018-10-11T20:34:37.140Z,93.70
2018-10-11T20:37:04.373Z,93.80
2018-10-11T20:39:31.574Z,93.70
2018-10-11T20:41:58.947Z,93.80
2018-10-11T20:44:26.285Z,93.80
2018-10-11T20:46:53.553Z,93.80
2018-10-11T20:49:20.814Z,94.00
2018-10-11T20:51:48.104Z,94.10
2018-10-11T20:54:15.394Z,94.30
2018-10-11T20:56:42.642Z,94.40
2018-10-11T20:59:09.853Z,94.60
2018-10-11T21:01:37.079Z,94.80
2018-10-11T21:04:04.274Z,94.90
2018-10-11T21:06:31.556Z,94.80
2018-10-11T21:08:58.922Z,94.80
2018-10-11T21:11:26.129Z,94.80
2018-10-11T21:13:53.303Z,94.90
2018-10-11T21:16:20.517Z,95.00
2018-10-11T21:18:47.893Z,95.00
2018-10-11T21:21:15.177Z,94.90
2018-10-11T21:23:42.435Z,95.00
2018-10-11T21:26:09.674Z,95.00
2018-10-11T21:28:36.929Z,95.40
2018-10-11T21:31:04.370Z,95.00
2018-10-11T21:33:32.214Z,95.10
2018-10-11T21:35:59.408Z,95.10
2018-10-11T21:38:26.593Z,95.10
2018-10-11T21:40:53.907Z,95.00
2018-10-11T21:43:22.089Z,94.90
2018-10-11T21:45:49.282Z,94.90
2018-10-11T21:48:16.498Z,94.90
2018-10-11T21:50:43.677Z,94.90
2018-10-11T21:53:10.990Z,94.80
2018-10-11T21:55:38.285Z,95.00
2018-10-11T21:58:05.488Z,94.60
2018-10-11T22:00:38.349Z,94.80
2018-10-11T22:03:05.535Z,94.60
2018-10-11T22:05:32.741Z,94.50
2018-10-11T22:07:59.925Z,94.50
2018-10-11T22:10:27.205Z,94.50
2018-10-11T22:12:54.454Z,94.40
2018-10-11T22:15:21.650Z,94.30
2018-10-11T22:17:48.841Z,94.30
2018-10-11T22:20:16.100Z,94.20
2018-10-11T22:22:43.373Z,94.10
2018-10-11T22:25:10.556Z,94.20
2018-10-11T22:27:37.742Z,94.20
2018-10-11T22:30:05.073Z,94.10
2018-10-11T22:32:32.268Z,94.10
2018-10-11T22:34:59.450Z,94.10
2018-10-11T22:37:26.721Z,94.10
2018-10-11T22:39:53.899Z,94.10
2018-10-11T22:42:21.106Z,94.10
2018-10-11T22:44:48.373Z,94.20
2018-10-11T22:47:15.608Z,94.20
2018-10-11T22:49:42.804Z,94.20
2018-10-11T22:52:10.126Z,94.20
2018-10-11T22:54:37.328Z,94.20
2018-10-11T22:57:04.585Z,94.20
2018-10-11T22:59:31.998Z,94.30
2018-10-11T23:01:59.214Z,94.40
2018-10-11T23:04:26.434Z,94.40
2018-10-11T23:06:53.769Z,94.50
2018-10-11T23:09:20.976Z,94.60
2018-10-11T23:11:48.212Z,94.80
2018-10-11T23:14:15.502Z,95.00
2018-10-11T23:16:42.736Z,95.00
2018-10-11T23:19:10.015Z,95.00
2018-10-11T23:21:37.450Z,95.00
2018-10-11T23:24:05.121Z,95.20
2018-10-11T23:26:32.847Z,95.60
2018-10-11T23:29:00.153Z,95.80
2018-10-11T23:31:27.366Z,95.80
2018-10-11T23:33:54.574Z,95.70
2018-10-11T23:36:21.891Z,95.40
2018-10-11T23:38:49.130Z,95.30
2018-10-11T23:41:16.927Z,95.30
2018-10-11T23:43:44.163Z,95.30
2018-10-11T23:46:11.466Z,95.30
2018-10-11T23:48:38.896Z,95.30
2018-10-11T23:51:06.087Z,95.20
2018-10-11T23:53:33.893Z,95.20
2018-10-11T23:56:01.240Z,95.20
2018-10-11T23:58:28.524Z,95.30
